Madison, Nebraska
Current Conditions -  °F | °C
As of 7:49 PM on Wednesday 22 Oct 2014 (Local Time) from KOFK Reporting Station
Overcast Overcast  
Wind Chill: 59°   Ceiling: 1500
Heat Index: 59°   Visibility: 10mi
Dew Point: 58°   Wind: 3mph
Humidity: 96%   Direction: 310°NW
Pressure: 30.03"   Gusts: NA
Location:  41.83°N, 97.46°W
Report Text: KOFK 230049Z AUTO 31003KT 10SM FEW010 BKN015 OVC033 15/14 A3003 RMK AO2 T01500144
Loading
Personal Weather Stations






























Interactive Weather Map
Tropical Storm Tracking
New forecast layout! Learn more

10-Day Weather Forecast

Advertisements
Track Severe Weather on mobile